Flight Track Log - Related Links

Times and Time Zones

All times are in EDT time to prevent confusion due to time zone crossing. See the SQH87 flight status page for this flight to view local times or setup timezone preferences in your user account.

Time Position Orientation Groundspeed Altitude Reporting Facility
EDT Latitude Longitude Course Direction KTS MPH feet Rate Location/Type
Thu 09:26:32 AM 34.4033 -93.1036 121° Southeast 240 276 4,400  Level Memphis Center
Thu 09:27:32 AM 34.3642 -93.0922 167° South 193 222 6,000 1,600 Climbing Memphis Center
Thu 09:28:32 AM 34.3203 -93.0858 173° South 167 192 7,600 1,450 Climbing Memphis Center
Thu 09:29:32 AM 34.2789 -93.0794 173° South 155 178 8,900 700 Climbing Memphis Center
Thu 09:30:32 AM 34.2186 -93.0625 167° South 178 205 9,000 50 Climbing Memphis Center
Thu 09:31:00 AM 34.2101 -93.0352 171° South  Level Estimated
Thu 09:31:32 AM 34.1542 -93.0453 168° South 214 246 9,000  Level Memphis Center
Thu 09:32:32 AM 34.0900 -93.0308 169° South 237 273 9,000  Level Memphis Center
Thu 09:33:32 AM 34.0236 -93.0136 168° South 242 278 9,000  Level Memphis Center
Thu 09:34:32 AM 33.9550 -92.9967 168° South 242 278 9,000  Level Memphis Center
Thu 09:36:55 AM 33.7936 -92.9547 168° South 244 281 9,000  Level Fort Worth Center
Thu 09:37:55 AM 33.7458 -92.8997 136° Southeast 244 281 9,000 -200 Level Fort Worth Center
Thu 09:38:55 AM 33.6975 -92.8325 131° Southeast 244 281 8,600 -700 Descending Fort Worth Center
Thu 09:39:55 AM 33.6578 -92.7719 128° Southeast 244 281 7,600 -1,000 Descending Fort Worth Center
Thu 09:40:55 AM 33.6203 -92.7167 129° Southeast 226 260 6,600 -1,000 Descending Fort Worth Center
Thu 09:41:55 AM 33.5869 -92.6636 127° Southeast 215 247 5,600 -950 Descending Fort Worth Center
Thu 09:42:55 AM 33.5414 -92.6236 144° Southeast 208 239 4,700 -950 Descending Fort Worth Center
Thu 09:43:55 AM 33.4883 -92.5967 157° South 201 231 3,700 -900 Descending Fort Worth Center
Thu 09:44:55 AM 33.4361 -92.5922 176° South 189 217 2,900 -400 Descending Fort Worth Center
Thu 09:45:55 AM 33.3908 -92.6094 198° South 182 209 2,900  Level Fort Worth Center

Login

Don't have an account? Register now (free) for customized features, flight alerts, and more!